sensor_id;sensor_type;location;lat;lon;timestamp;pressure;altitude;pressure_sealevel;temperature;humidity
25650;BME280;13505;45.196;5.696;2023-11-21T05:35:08;98893.28;;;9.71;92.96
25650;BME280;13505;45.196;5.696;2023-11-21T05:40:08;98891.41;;;9.54;94.04
25650;BME280;13505;45.196;5.696;2023-11-21T05:44:59;98892.50;;;9.69;92.93
25650;BME280;13505;45.196;5.696;2023-11-21T05:49:49;98896.78;;;9.72;93.69
25650;BME280;13505;45.196;5.696;2023-11-21T05:54:41;98886.28;;;9.70;95.06
25650;BME280;13505;45.196;5.696;2023-11-21T05:59:31;98894.19;;;9.70;95.34
25650;BME280;13505;45.196;5.696;2023-11-21T06:04:21;98893.50;;;9.67;95.95
25650;BME280;13505;45.196;5.696;2023-11-21T06:09:14;98890.00;;;9.66;96.20
25650;BME280;13505;45.196;5.696;2023-11-21T06:14:04;98883.09;;;9.63;96.99
25650;BME280;13505;45.196;5.696;2023-11-21T06:18:58;98878.03;;;9.59;97.24
25650;BME280;13505;45.196;5.696;2023-11-21T06:23:48;98890.50;;;9.55;97.38
25650;BME280;13505;45.196;5.696;2023-11-21T06:28:38;98889.59;;;9.56;97.40
25650;BME280;13505;45.196;5.696;2023-11-21T06:33:29;98904.47;;;9.57;97.42
25650;BME280;13505;45.196;5.696;2023-11-21T06:38:19;98907.78;;;9.61;97.06
25650;BME280;13505;45.196;5.696;2023-11-21T06:43:10;98909.03;;;9.54;97.28
25650;BME280;13505;45.196;5.696;2023-11-21T06:48:00;98910.72;;;9.55;97.69
25650;BME280;13505;45.196;5.696;2023-11-21T06:52:50;98910.56;;;9.58;96.74
25650;BME280;13505;45.196;5.696;2023-11-21T06:57:40;98909.59;;;9.60;96.40
25650;BME280;13505;45.196;5.696;2023-11-21T07:02:31;98899.06;;;9.60;96.13
25650;BME280;13505;45.196;5.696;2023-11-21T07:07:27;98908.28;;;9.69;95.66
25650;BME280;13505;45.196;5.696;2023-11-21T07:12:21;98905.66;;;9.69;95.20
25650;BME280;13505;45.196;5.696;2023-11-21T07:17:13;98910.66;;;9.75;94.76
25650;BME280;13505;45.196;5.696;2023-11-21T07:22:04;98919.50;;;9.74;94.68
25650;BME280;13505;45.196;5.696;2023-11-21T07:26:55;98914.50;;;9.68;95.69
25650;BME280;13505;45.196;5.696;2023-11-21T07:31:46;98916.41;;;9.64;97.35
25650;BME280;13505;45.196;5.696;2023-11-21T07:36:36;98911.44;;;9.58;98.06
25650;BME280;13505;45.196;5.696;2023-11-21T07:41:27;98922.41;;;9.49;100.00
25650;BME280;13505;45.196;5.696;2023-11-21T07:46:19;98920.84;;;9.64;99.35
25650;BME280;13505;45.196;5.696;2023-11-21T07:51:10;98916.41;;;9.64;100.00
25650;BME280;13505;45.196;5.696;2023-11-21T07:56:04;98907.31;;;9.72;99.58
25650;BME280;13505;45.196;5.696;2023-11-21T08:00:55;98912.22;;;9.80;99.46
25650;BME280;13505;45.196;5.696;2023-11-21T08:05:45;98902.66;;;9.96;98.95
25650;BME280;13505;45.196;5.696;2023-11-21T08:10:35;98898.56;;;10.08;98.75
25650;BME280;13505;45.196;5.696;2023-11-21T08:15:26;98906.56;;;10.24;97.73
25650;BME280;13505;45.196;5.696;2023-11-21T08:20:16;98898.22;;;10.16;98.40
25650;BME280;13505;45.196;5.696;2023-11-21T08:25:08;98895.97;;;10.26;98.06
25650;BME280;13505;45.196;5.696;2023-11-21T08:29:58;98892.50;;;10.25;98.31
25650;BME280;13505;45.196;5.696;2023-11-21T08:34:49;98898.78;;;10.23;99.01
25650;BME280;13505;45.196;5.696;2023-11-21T08:39:40;98889.88;;;10.25;99.44
25650;BME280;13505;45.196;5.696;2023-11-21T08:44:32;98890.75;;;10.24;100.00
25650;BME280;13505;45.196;5.696;2023-11-21T08:49:22;98892.13;;;10.33;100.00
25650;BME280;13505;45.196;5.696;2023-11-21T08:54:12;98891.47;;;10.28;100.00
25650;BME280;13505;45.196;5.696;2023-11-21T08:59:03;98896.53;;;10.32;100.00
25650;BME280;13505;45.196;5.696;2023-11-21T09:03:53;98898.44;;;10.29;100.00
25650;BME280;13505;45.196;5.696;2023-11-21T09:08:43;98896.81;;;10.63;100.00
25650;BME280;13505;45.196;5.696;2023-11-21T09:13:34;98892.53;;;10.78;100.00
25650;BME280;13505;45.196;5.696;2023-11-21T09:18:24;98886.88;;;10.86;100.00
25650;BME280;13505;45.196;5.696;2023-11-21T09:23:15;98893.31;;;11.14;100.00
25650;BME280;13505;45.196;5.696;2023-11-21T09:28:05;98895.00;;;11.33;98.49
25650;BME280;13505;45.196;5.696;2023-11-21T09:32:59;98892.25;;;11.18;98.28
25650;BME280;13505;45.196;5.696;2023-11-21T09:37:50;98888.63;;;11.03;98.93
25650;BME280;13505;45.196;5.696;2023-11-21T09:42:55;98898.78;;;10.93;99.31
25650;BME280;13505;45.196;5.696;2023-11-21T09:47:46;98889.81;;;10.97;99.65
25650;BME280;13505;45.196;5.696;2023-11-21T09:52:48;98903.16;;;10.94;99.75
25650;BME280;13505;45.196;5.696;2023-11-21T09:57:40;98899.59;;;10.95;99.67
25650;BME280;13505;45.196;5.696;2023-11-21T10:02:35;98908.34;;;10.96;100.00
25650;BME280;13505;45.196;5.696;2023-11-21T10:07:26;98889.63;;;11.00;100.00
25650;BME280;13505;45.196;5.696;2023-11-21T10:12:19;98895.84;;;10.99;99.17
25650;BME280;13505;45.196;5.696;2023-11-21T10:17:12;98883.13;;;10.90;100.00
25650;BME280;13505;45.196;5.696;2023-11-21T10:22:06;98879.06;;;11.00;99.21
25650;BME280;13505;45.196;5.696;2023-11-21T10:26:59;98875.53;;;11.17;98.61
25650;BME280;13505;45.196;5.696;2023-11-21T10:31:52;98878.88;;;11.21;97.00
25650;BME280;13505;45.196;5.696;2023-11-21T10:36:45;98877.63;;;11.28;97.39
25650;BME280;13505;45.196;5.696;2023-11-21T10:41:35;98877.53;;;11.30;96.95
25650;BME280;13505;45.196;5.696;2023-11-21T10:46:27;98864.50;;;11.27;96.22
25650;BME280;13505;45.196;5.696;2023-11-21T10:51:17;98854.72;;;10.95;95.77
25650;BME280;13505;45.196;5.696;2023-11-21T10:56:09;98858.69;;;11.20;95.87
25650;BME280;13505;45.196;5.696;2023-11-21T11:01:07;98850.94;;;10.66;99.40
25650;BME280;13505;45.196;5.696;2023-11-21T11:05:58;98854.78;;;10.94;99.59
25650;BME280;13505;45.196;5.696;2023-11-21T11:10:50;98849.94;;;10.86;99.08
25650;BME280;13505;45.196;5.696;2023-11-21T11:15:41;98850.72;;;10.70;100.00
25650;BME280;13505;45.196;5.696;2023-11-21T11:20:34;98854.28;;;10.87;99.91
25650;BME280;13505;45.196;5.696;2023-11-21T11:25:38;98852.56;;;10.86;100.00
25650;BME280;13505;45.196;5.696;2023-11-21T11:40:40;98843.78;;;10.85;100.00
25650;BME280;13505;45.196;5.696;2023-11-21T11:45:34;98839.59;;;11.15;100.00
25650;BME280;13505;45.196;5.696;2023-11-21T11:50:25;98836.13;;;11.14;100.00
25650;BME280;13505;45.196;5.696;2023-11-21T11:55:18;98840.97;;;11.22;99.50
25650;BME280;13505;45.196;5.696;2023-11-21T12:00:12;98829.97;;;11.14;99.59
25650;BME280;13505;45.196;5.696;2023-11-21T12:05:13;98824.44;;;11.19;98.80
25650;BME280;13505;45.196;5.696;2023-11-21T12:10:04;98824.88;;;11.27;97.62
25650;BME280;13505;45.196;5.696;2023-11-21T12:14:55;98825.81;;;11.26;95.59
25650;BME280;13505;45.196;5.696;2023-11-21T12:19:45;98814.72;;;11.03;97.39
25650;BME280;13505;45.196;5.696;2023-11-21T12:24:36;98812.69;;;11.24;96.43
25650;BME280;13505;45.196;5.696;2023-11-21T12:29:26;98810.16;;;11.23;94.99
25650;BME280;13505;45.196;5.696;2023-11-21T12:34:19;98820.13;;;11.34;94.34
25650;BME280;13505;45.196;5.696;2023-11-21T12:39:10;98827.94;;;11.03;95.86
25650;BME280;13505;45.196;5.696;2023-11-21T12:44:00;98819.41;;;11.14;96.40
25650;BME280;13505;45.196;5.696;2023-11-21T12:48:51;98821.41;;;11.26;96.53
25650;BME280;13505;45.196;5.696;2023-11-21T12:53:42;98832.38;;;11.35;95.50
25650;BME280;13505;45.196;5.696;2023-11-21T12:58:33;98823.38;;;11.23;96.66
25650;BME280;13505;45.196;5.696;2023-11-21T13:03:25;98835.44;;;11.27;97.16
25650;BME280;13505;45.196;5.696;2023-11-21T13:08:17;98827.72;;;11.40;96.07
25650;BME280;13505;45.196;5.696;2023-11-21T13:13:11;98842.09;;;11.34;96.02
25650;BME280;13505;45.196;5.696;2023-11-21T13:18:07;98843.31;;;11.44;94.97
25650;BME280;13505;45.196;5.696;2023-11-21T13:23:08;98841.16;;;11.35;95.12
25650;BME280;13505;45.196;5.696;2023-11-21T13:27:58;98848.84;;;11.40;95.61
25650;BME280;13505;45.196;5.696;2023-11-21T13:32:49;98841.16;;;11.35;97.84
25650;BME280;13505;45.196;5.696;2023-11-21T13:37:42;98838.06;;;11.11;98.39
25650;BME280;13505;45.196;5.696;2023-11-21T13:42:32;98840.69;;;11.11;98.15
25650;BME280;13505;45.196;5.696;2023-11-21T13:47:23;98841.13;;;11.03;98.43
25650;BME280;13505;45.196;5.696;2023-11-21T13:52:19;98836.88;;;11.16;98.56
25650;BME280;13505;45.196;5.696;2023-11-21T13:57:12;98830.50;;;11.05;97.29
25650;BME280;13505;45.196;5.696;2023-11-21T14:02:03;98826.16;;;11.20;96.64
25650;BME280;13505;45.196;5.696;2023-11-21T14:07:07;98819.94;;;11.05;98.47
25650;BME280;13505;45.196;5.696;2023-11-21T14:12:12;98822.78;;;10.84;99.55
25650;BME280;13505;45.196;5.696;2023-11-21T14:17:03;98812.53;;;10.78;100.00
25650;BME280;13505;45.196;5.696;2023-11-21T14:21:56;98819.97;;;10.87;100.00
25650;BME280;13505;45.196;5.696;2023-11-21T14:26:47;98823.50;;;10.70;100.00
25650;BME280;13505;45.196;5.696;2023-11-21T14:31:38;98823.44;;;10.54;100.00
25650;BME280;13505;45.196;5.696;2023-11-21T14:36:29;98834.66;;;10.40;100.00
25650;BME280;13505;45.196;5.696;2023-11-21T14:41:19;98818.41;;;10.49;100.00
25650;BME280;13505;45.196;5.696;2023-11-21T14:46:10;98819.47;;;10.45;100.00
25650;BME280;13505;45.196;5.696;2023-11-21T14:51:04;98832.94;;;10.56;100.00
25650;BME280;13505;45.196;5.696;2023-11-21T14:55:54;98822.91;;;10.47;100.00
25650;BME280;13505;45.196;5.696;2023-11-21T15:00:48;98825.63;;;10.45;100.00
25650;BME280;13505;45.196;5.696;2023-11-21T15:05:41;98835.38;;;10.43;100.00
25650;BME280;13505;45.196;5.696;2023-11-21T15:10:34;98835.75;;;10.53;100.00
25650;BME280;13505;45.196;5.696;2023-11-21T15:15:39;98844.53;;;10.54;100.00
25650;BME280;13505;45.196;5.696;2023-11-21T15:20:29;98845.84;;;10.45;100.00
25650;BME280;13505;45.196;5.696;2023-11-21T15:25:20;98851.69;;;10.52;100.00
25650;BME280;13505;45.196;5.696;2023-11-21T15:30:11;98860.72;;;10.46;100.00
25650;BME280;13505;45.196;5.696;2023-11-21T15:35:02;98865.81;;;10.31;100.00
25650;BME280;13505;45.196;5.696;2023-11-21T15:39:52;98872.31;;;10.24;100.00
25650;BME280;13505;45.196;5.696;2023-11-21T15:44:43;98876.75;;;10.24;100.00
25650;BME280;13505;45.196;5.696;2023-11-21T15:49:33;98882.19;;;10.21;100.00
25650;BME280;13505;45.196;5.696;2023-11-21T15:54:26;98881.31;;;10.20;100.00
25650;BME280;13505;45.196;5.696;2023-11-21T15:59:18;98886.97;;;10.30;100.00
25650;BME280;13505;45.196;5.696;2023-11-21T16:04:09;98885.53;;;10.05;100.00
25650;BME280;13505;45.196;5.696;2023-11-21T16:09:01;98886.09;;;10.12;100.00
25650;BME280;13505;45.196;5.696;2023-11-21T16:13:51;98894.78;;;10.14;100.00
25650;BME280;13505;45.196;5.696;2023-11-21T16:18:42;98908.78;;;9.97;100.00
25650;BME280;13505;45.196;5.696;2023-11-21T16:23:32;98904.69;;;10.09;100.00
25650;BME280;13505;45.196;5.696;2023-11-21T16:28:22;98913.59;;;10.06;100.00
25650;BME280;13505;45.196;5.696;2023-11-21T16:33:15;98928.47;;;10.07;100.00
25650;BME280;13505;45.196;5.696;2023-11-21T16:38:05;98935.56;;;10.07;100.00
25650;BME280;13505;45.196;5.696;2023-11-21T16:42:55;98944.28;;;10.07;100.00
25650;BME280;13505;45.196;5.696;2023-11-21T16:47:47;98931.34;;;10.02;100.00
25650;BME280;13505;45.196;5.696;2023-11-21T16:52:40;98942.09;;;9.98;100.00
25650;BME280;13505;45.196;5.696;2023-11-21T16:57:31;98946.09;;;10.07;100.00
25650;BME280;13505;45.196;5.696;2023-11-21T17:02:22;98944.25;;;9.89;100.00
25650;BME280;13505;45.196;5.696;2023-11-21T17:07:16;98944.53;;;9.83;100.00
25650;BME280;13505;45.196;5.696;2023-11-21T17:12:11;98940.53;;;9.94;100.00
25650;BME280;13505;45.196;5.696;2023-11-21T17:17:01;98966.47;;;9.84;100.00
25650;BME280;13505;45.196;5.696;2023-11-21T17:21:52;98965.09;;;9.75;100.00
25650;BME280;13505;45.196;5.696;2023-11-21T17:26:43;98973.16;;;9.72;100.00
25650;BME280;13505;45.196;5.696;2023-11-21T17:31:34;98974.78;;;9.74;100.00
25650;BME280;13505;45.196;5.696;2023-11-21T17:36:24;98968.88;;;9.69;100.00
25650;BME280;13505;45.196;5.696;2023-11-21T17:41:19;98964.81;;;9.62;100.00
25650;BME280;13505;45.196;5.696;2023-11-21T17:46:11;98974.19;;;9.48;100.00
25650;BME280;13505;45.196;5.696;2023-11-21T17:51:01;98974.34;;;9.64;100.00
25650;BME280;13505;45.196;5.696;2023-11-21T17:55:53;98970.31;;;9.57;100.00
25650;BME280;13505;45.196;5.696;2023-11-21T18:00:43;98982.78;;;9.33;100.00
25650;BME280;13505;45.196;5.696;2023-11-21T18:05:37;98993.50;;;9.28;100.00
25650;BME280;13505;45.196;5.696;2023-11-21T18:10:27;99000.63;;;9.26;100.00
25650;BME280;13505;45.196;5.696;2023-11-21T18:15:17;98997.44;;;9.18;100.00
25650;BME280;13505;45.196;5.696;2023-11-21T18:20:10;99006.66;;;9.28;100.00
25650;BME280;13505;45.196;5.696;2023-11-21T18:25:01;99010.66;;;9.37;100.00
25650;BME280;13505;45.196;5.696;2023-11-21T18:29:51;99023.16;;;9.11;100.00
25650;BME280;13505;45.196;5.696;2023-11-21T18:34:42;99018.56;;;9.37;100.00
25650;BME280;13505;45.196;5.696;2023-11-21T18:39:34;99026.06;;;9.26;99.85
25650;BME280;13505;45.196;5.696;2023-11-21T18:44:25;99029.47;;;9.48;99.11
25650;BME280;13505;45.196;5.696;2023-11-21T18:49:15;99029.09;;;9.37;99.31
25650;BME280;13505;45.196;5.696;2023-11-21T18:54:07;99041.66;;;9.51;97.43
25650;BME280;13505;45.196;5.696;2023-11-21T18:58:57;99051.53;;;9.46;97.28
25650;BME280;13505;45.196;5.696;2023-11-21T19:03:48;99054.81;;;9.30;98.07
25650;BME280;13505;45.196;5.696;2023-11-21T19:08:40;99059.16;;;9.31;96.68
25650;BME280;13505;45.196;5.696;2023-11-21T19:13:31;99056.19;;;9.39;97.53
25650;BME280;13505;45.196;5.696;2023-11-21T19:18:21;99051.84;;;9.38;96.08
25650;BME280;13505;45.196;5.696;2023-11-21T19:23:11;99052.03;;;9.33;96.66
25650;BME280;13505;45.196;5.696;2023-11-21T19:28:01;99057.25;;;9.35;95.90
25650;BME280;13505;45.196;5.696;2023-11-21T19:32:52;99062.66;;;9.32;95.26
25650;BME280;13505;45.196;5.696;2023-11-21T19:37:42;99065.69;;;9.23;94.30
25650;BME280;13505;45.196;5.696;2023-11-21T19:42:33;99073.63;;;9.21;94.37
25650;BME280;13505;45.196;5.696;2023-11-21T19:47:26;99090.81;;;9.30;94.12
25650;BME280;13505;45.196;5.696;2023-11-21T19:52:16;99086.13;;;9.16;94.20
25650;BME280;13505;45.196;5.696;2023-11-21T19:57:07;99090.63;;;9.14;92.75
25650;BME280;13505;45.196;5.696;2023-11-21T20:01:58;99104.47;;;9.17;93.79
25650;BME280;13505;45.196;5.696;2023-11-21T20:06:49;99107.78;;;9.23;93.31
25650;BME280;13505;45.196;5.696;2023-11-21T20:11:40;99115.31;;;9.10;93.11
25650;BME280;13505;45.196;5.696;2023-11-21T20:16:31;99113.47;;;9.12;94.37
25650;BME280;13505;45.196;5.696;2023-11-21T20:21:21;99114.16;;;9.17;92.65
25650;BME280;13505;45.196;5.696;2023-11-21T20:26:20;99113.47;;;9.12;93.07
25650;BME280;13505;45.196;5.696;2023-11-21T20:31:10;99125.78;;;9.11;92.47
25650;BME280;13505;45.196;5.696;2023-11-21T20:36:00;99147.59;;;9.15;92.37
25650;BME280;13505;45.196;5.696;2023-11-21T20:40:50;99142.25;;;9.16;92.44
25650;BME280;13505;45.196;5.696;2023-11-21T20:45:41;99144.03;;;9.16;91.72
25650;BME280;13505;45.196;5.696;2023-11-21T20:50:32;99147.63;;;9.13;90.79
25650;BME280;13505;45.196;5.696;2023-11-21T20:55:22;99157.47;;;9.08;90.12
25650;BME280;13505;45.196;5.696;2023-11-21T21:00:13;99155.59;;;8.89;90.64
25650;BME280;13505;45.196;5.696;2023-11-21T21:05:06;99164.41;;;8.88;90.34
25650;BME280;13505;45.196;5.696;2023-11-21T21:09:56;99170.16;;;8.98;90.51
25650;BME280;13505;45.196;5.696;2023-11-21T21:14:48;99172.66;;;9.01;89.82
25650;BME280;13505;45.196;5.696;2023-11-21T21:19:38;99173.13;;;8.89;89.65
25650;BME280;13505;45.196;5.696;2023-11-21T21:24:29;99191.41;;;8.92;90.02
25650;BME280;13505;45.196;5.696;2023-11-21T21:29:19;99194.69;;;8.99;89.64
25650;BME280;13505;45.196;5.696;2023-11-21T21:34:11;99185.00;;;8.99;89.39
25650;BME280;13505;45.196;5.696;2023-11-21T21:39:03;99188.31;;;8.82;90.26
25650;BME280;13505;45.196;5.696;2023-11-21T21:43:53;99188.75;;;8.93;91.02
25650;BME280;13505;45.196;5.696;2023-11-21T21:48:44;99202.59;;;8.99;90.52
25650;BME280;13505;45.196;5.696;2023-11-21T21:53:34;99207.59;;;8.83;90.67
25650;BME280;13505;45.196;5.696;2023-11-21T21:58:24;99214.66;;;8.80;89.75
25650;BME280;13505;45.196;5.696;2023-11-21T22:03:16;99215.66;;;8.78;91.04
25650;BME280;13505;45.196;5.696;2023-11-21T22:08:06;99199.09;;;8.98;89.59
25650;BME280;13505;45.196;5.696;2023-11-21T22:12:57;99203.13;;;8.85;90.51
25650;BME280;13505;45.196;5.696;2023-11-21T22:17:47;99200.13;;;8.94;90.35
25650;BME280;13505;45.196;5.696;2023-11-21T22:22:40;99210.41;;;9.00;90.18
25650;BME280;13505;45.196;5.696;2023-11-21T22:27:30;99217.63;;;8.95;90.66
25650;BME280;13505;45.196;5.696;2023-11-21T22:32:21;99207.72;;;9.02;89.89
25650;BME280;13505;45.196;5.696;2023-11-21T22:37:12;99221.81;;;9.01;90.57
25650;BME280;13505;45.196;5.696;2023-11-21T22:42:02;99228.41;;;9.11;89.62
25650;BME280;13505;45.196;5.696;2023-11-21T22:46:53;99218.50;;;9.18;89.83
25650;BME280;13505;45.196;5.696;2023-11-21T22:51:49;99213.13;;;8.99;89.90
25650;BME280;13505;45.196;5.696;2023-11-21T22:56:40;99210.03;;;9.10;90.07
